createdAt,value
2023-05-24T00:02:00.427Z,55.90
2023-05-24T00:04:27.050Z,55.90
2023-05-24T00:06:53.603Z,55.90
2023-05-24T00:09:20.123Z,55.90
2023-05-24T00:11:46.654Z,55.90
2023-05-24T00:14:13.159Z,55.70
2023-05-24T00:16:39.739Z,55.80
2023-05-24T00:19:06.286Z,55.60
2023-05-24T00:21:32.833Z,55.50
2023-05-24T00:23:59.410Z,55.50
2023-05-24T00:26:25.944Z,55.60
2023-05-24T00:28:52.480Z,55.60
2023-05-24T00:31:19.017Z,55.60
2023-05-24T00:33:45.565Z,55.40
2023-05-24T00:36:12.144Z,55.40
2023-05-24T00:38:38.673Z,55.40
2023-05-24T00:41:05.196Z,55.40
2023-05-24T00:43:31.748Z,55.30
2023-05-24T00:45:58.589Z,55.20
2023-05-24T00:48:25.171Z,55.40
2023-05-24T00:50:51.682Z,55.40
2023-05-24T00:53:18.231Z,55.40
2023-05-24T00:55:44.763Z,55.30
2023-05-24T00:58:11.316Z,55.30
2023-05-24T01:00:40.751Z,55.30
2023-05-24T01:03:07.566Z,55.30
2023-05-24T01:05:34.266Z,55.20
2023-05-24T01:08:00.816Z,55.20
2023-05-24T01:10:27.338Z,55.20
2023-05-24T01:12:53.857Z,55.20
2023-05-24T01:15:20.363Z,55.20
2023-05-24T01:17:46.946Z,55.10
2023-05-24T01:20:13.590Z,55.10
2023-05-24T01:22:40.149Z,55.10
2023-05-24T01:25:06.727Z,54.80
2023-05-24T01:27:33.277Z,55.60
2023-05-24T01:29:59.913Z,54.90
2023-05-24T01:32:26.472Z,54.80
2023-05-24T01:34:52.978Z,54.90
2023-05-24T01:37:19.518Z,54.60
2023-05-24T01:39:46.592Z,54.80
2023-05-24T01:42:13.099Z,54.80
2023-05-24T01:44:39.652Z,54.80
2023-05-24T01:47:06.202Z,54.70
2023-05-24T01:49:32.783Z,54.70
2023-05-24T01:51:59.490Z,54.70
2023-05-24T01:54:26.139Z,54.70
2023-05-24T01:56:52.655Z,54.70
2023-05-24T01:59:19.167Z,54.70
2023-05-24T02:01:45.685Z,54.70
2023-05-24T02:04:12.203Z,54.60
2023-05-24T02:06:38.743Z,54.60
2023-05-24T02:09:05.253Z,54.70
2023-05-24T02:11:31.756Z,54.40
2023-05-24T02:13:58.288Z,54.60
2023-05-24T02:16:28.808Z,54.60
2023-05-24T02:18:55.402Z,54.40
2023-05-24T02:21:21.942Z,54.40
2023-05-24T02:23:48.457Z,54.30
2023-05-24T02:26:15.004Z,54.40
2023-05-24T02:28:46.682Z,54.40
2023-05-24T02:31:13.293Z,54.30
2023-05-24T02:33:39.858Z,54.20
2023-05-24T02:36:06.401Z,54.20
2023-05-24T02:38:32.919Z,54.20
2023-05-24T02:40:59.453Z,54.10
2023-05-24T02:43:25.993Z,54.20
2023-05-24T02:45:52.571Z,54.10
2023-05-24T02:48:19.119Z,54.20
2023-05-24T02:50:45.630Z,54.00
2023-05-24T02:53:12.141Z,54.00
2023-05-24T02:55:38.657Z,53.90
2023-05-24T02:58:05.171Z,54.00
2023-05-24T03:00:31.710Z,53.80
2023-05-24T03:02:58.335Z,54.00
2023-05-24T03:05:24.927Z,53.90
2023-05-24T03:07:51.454Z,53.70
2023-05-24T03:10:17.980Z,53.80
2023-05-24T03:12:44.513Z,53.40
2023-05-24T03:15:11.056Z,53.70
2023-05-24T03:17:37.692Z,53.70
2023-05-24T03:20:04.272Z,53.60
2023-05-24T03:22:30.829Z,53.70
2023-05-24T03:24:57.366Z,53.70
2023-05-24T03:27:23.897Z,53.70
2023-05-24T03:29:50.405Z,53.70
2023-05-24T03:32:16.951Z,53.80
2023-05-24T03:34:43.483Z,53.60
2023-05-24T03:37:10.080Z,53.60
2023-05-24T03:39:36.589Z,53.50
2023-05-24T03:42:03.117Z,53.60
2023-05-24T03:44:29.644Z,53.50
2023-05-24T03:46:56.169Z,53.60
2023-05-24T03:49:22.674Z,53.50
2023-05-24T03:51:49.203Z,53.40
2023-05-24T03:54:15.729Z,53.60
2023-05-24T03:56:42.270Z,53.50
2023-05-24T03:59:08.808Z,53.60
2023-05-24T04:01:35.393Z,53.40
2023-05-24T04:04:01.951Z,53.60
2023-05-24T04:06:28.578Z,53.40
2023-05-24T04:08:55.127Z,53.50
2023-05-24T04:11:21.648Z,53.30
2023-05-24T04:13:48.193Z,53.40
2023-05-24T04:16:16.730Z,53.40
2023-05-24T04:18:43.334Z,53.30
2023-05-24T04:21:09.984Z,53.30
2023-05-24T04:23:36.518Z,53.30
2023-05-24T04:26:03.037Z,53.60
2023-05-24T04:28:29.555Z,53.50
2023-05-24T04:30:56.094Z,53.40
2023-05-24T04:33:22.665Z,53.40
2023-05-24T04:35:49.232Z,53.40
2023-05-24T04:38:15.788Z,53.30
2023-05-24T04:40:42.603Z,53.40
2023-05-24T04:43:09.361Z,53.50
2023-05-24T04:45:35.869Z,53.50
2023-05-24T04:48:02.445Z,53.60
2023-05-24T04:50:29.025Z,53.40
2023-05-24T04:52:55.569Z,53.50
2023-05-24T04:55:22.075Z,53.60
2023-05-24T04:57:48.643Z,53.40
2023-05-24T05:00:15.171Z,53.30
2023-05-24T05:02:46.970Z,53.30
2023-05-24T05:05:13.588Z,53.30
2023-05-24T05:07:40.118Z,53.20
2023-05-24T05:10:06.622Z,53.30
2023-05-24T05:12:33.149Z,53.00
2023-05-24T05:14:59.668Z,53.00
2023-05-24T05:17:26.202Z,53.00
2023-05-24T05:19:52.757Z,53.00
2023-05-24T05:22:19.314Z,53.00
2023-05-24T05:24:45.826Z,53.20
2023-05-24T05:27:12.355Z,53.20
2023-05-24T05:29:38.867Z,53.10
2023-05-24T05:32:05.467Z,53.30
2023-05-24T05:34:32.057Z,53.30
2023-05-24T05:36:58.601Z,53.20
2023-05-24T05:39:25.156Z,53.10
2023-05-24T05:41:51.671Z,53.20
2023-05-24T05:44:18.232Z,53.10
2023-05-24T05:46:44.766Z,53.00
2023-05-24T05:49:11.353Z,53.30
2023-05-24T05:51:37.909Z,53.20
2023-05-24T05:54:04.453Z,53.10
2023-05-24T05:56:30.981Z,53.20
2023-05-24T05:58:57.531Z,53.40
2023-05-24T06:01:24.085Z,53.30
2023-05-24T06:03:50.831Z,53.40
2023-05-24T06:06:17.509Z,53.40
2023-05-24T06:08:44.037Z,53.40
2023-05-24T06:11:10.555Z,53.50
2023-05-24T06:13:37.078Z,53.60
2023-05-24T06:16:03.652Z,53.50
2023-05-24T06:18:30.199Z,53.40
2023-05-24T06:20:58.788Z,53.50
2023-05-24T06:23:25.326Z,53.40
2023-05-24T06:25:51.849Z,53.50
2023-05-24T06:28:18.385Z,53.40
2023-05-24T06:30:45.113Z,53.50
2023-05-24T06:33:11.931Z,53.30
2023-05-24T06:35:38.475Z,53.40
2023-05-24T06:38:05.008Z,53.70
2023-05-24T06:40:31.537Z,53.60
2023-05-24T06:42:58.113Z,53.50
2023-05-24T06:45:24.656Z,53.90
2023-05-24T06:47:51.252Z,53.90
2023-05-24T06:50:19.898Z,53.80
2023-05-24T06:52:46.434Z,53.70
2023-05-24T06:55:12.988Z,53.70
2023-05-24T06:57:39.510Z,53.80
2023-05-24T07:00:06.075Z,54.00
2023-05-24T07:02:32.626Z,54.40
2023-05-24T07:04:59.199Z,54.20
2023-05-24T07:07:29.028Z,54.10
2023-05-24T07:09:55.570Z,54.10
2023-05-24T07:12:22.086Z,53.80
2023-05-24T07:14:48.627Z,54.00
2023-05-24T07:17:15.211Z,54.10
2023-05-24T07:19:41.823Z,53.90
2023-05-24T07:22:08.355Z,54.00
2023-05-24T07:24:34.899Z,54.20
2023-05-24T07:27:01.412Z,54.50
2023-05-24T07:29:27.958Z,54.50
2023-05-24T07:31:59.006Z,54.30
2023-05-24T07:34:25.593Z,54.20
2023-05-24T07:36:52.122Z,54.50
2023-05-24T07:39:18.648Z,54.40
2023-05-24T07:41:45.150Z,54.20
2023-05-24T07:44:11.670Z,54.30
2023-05-24T07:46:38.241Z,53.90
2023-05-24T07:49:04.782Z,54.10
2023-05-24T07:51:31.278Z,54.20
2023-05-24T07:53:57.782Z,54.00
2023-05-24T07:56:24.342Z,53.90
2023-05-24T07:58:50.889Z,54.00
2023-05-24T08:01:17.442Z,54.10
2023-05-24T08:03:44.138Z,54.10
2023-05-24T08:06:10.824Z,54.00
2023-05-24T08:08:37.346Z,54.40
2023-05-24T08:11:03.896Z,54.40
2023-05-24T08:13:30.440Z,54.80
2023-05-24T08:15:57.025Z,54.20
2023-05-24T08:18:23.635Z,54.40
2023-05-24T08:20:50.217Z,54.30
2023-05-24T08:23:16.731Z,54.10
2023-05-24T08:25:43.575Z,54.20
2023-05-24T08:28:10.341Z,54.00
2023-05-24T08:30:37.010Z,54.00
2023-05-24T08:33:03.570Z,54.10
2023-05-24T08:35:30.113Z,54.00
2023-05-24T08:37:56.644Z,54.00
2023-05-24T08:40:23.187Z,54.40
2023-05-24T08:42:49.710Z,54.20
2023-05-24T08:45:16.380Z,54.40
2023-05-24T08:47:43.093Z,54.40
2023-05-24T08:50:09.668Z,54.80
2023-05-24T08:52:36.227Z,54.30
2023-05-24T08:55:02.811Z,54.30
2023-05-24T08:57:29.353Z,54.50
2023-05-24T08:59:55.870Z,54.30
2023-05-24T09:02:22.419Z,54.20
2023-05-24T09:04:48.927Z,54.30
2023-05-24T09:07:15.464Z,54.20
2023-05-24T09:09:41.970Z,54.20
2023-05-24T09:12:08.529Z,54.30
2023-05-24T09:14:35.026Z,54.20
2023-05-24T09:17:01.550Z,54.20
2023-05-24T09:19:28.058Z,54.30
2023-05-24T09:21:54.576Z,54.30
2023-05-24T09:24:21.066Z,54.20
2023-05-24T09:26:47.600Z,54.30
2023-05-24T09:29:14.127Z,54.30
2023-05-24T09:31:41.119Z,54.30
2023-05-24T09:34:07.693Z,54.40
2023-05-24T09:36:34.219Z,54.30
2023-05-24T09:39:00.746Z,54.30
2023-05-24T09:41:27.288Z,54.40
2023-05-24T09:43:53.816Z,54.50
2023-05-24T09:46:20.489Z,54.30
2023-05-24T09:48:47.048Z,54.20
2023-05-24T09:51:13.630Z,54.50
2023-05-24T09:53:40.157Z,54.40
2023-05-24T09:56:06.666Z,54.30
2023-05-24T09:58:33.246Z,54.30
2023-05-24T10:01:05.083Z,54.20
2023-05-24T10:03:31.998Z,54.20
2023-05-24T10:05:58.604Z,54.40
2023-05-24T10:08:25.189Z,54.30
2023-05-24T10:10:51.720Z,54.30
2023-05-24T10:13:18.278Z,54.30
2023-05-24T10:15:44.833Z,54.40
2023-05-24T10:18:13.885Z,54.30
2023-05-24T10:20:41.860Z,54.40
2023-05-24T10:23:08.902Z,54.40
2023-05-24T10:25:35.428Z,54.60
2023-05-24T10:28:01.992Z,54.40
2023-05-24T10:30:28.512Z,54.60
2023-05-24T10:32:55.143Z,54.40
2023-05-24T10:35:21.714Z,54.60
2023-05-24T10:37:48.262Z,54.60
2023-05-24T10:40:14.935Z,54.60
2023-05-24T10:42:41.507Z,54.60
2023-05-24T10:45:08.016Z,54.60
2023-05-24T10:47:35.854Z,54.70
2023-05-24T10:50:04.129Z,54.50
2023-05-24T10:52:30.662Z,54.70
2023-05-24T10:55:03.094Z,54.50
2023-05-24T10:57:31.096Z,54.20
2023-05-24T10:59:57.648Z,54.40
2023-05-24T11:02:24.288Z,54.30
2023-05-24T11:04:50.890Z,54.40
2023-05-24T11:07:17.424Z,54.70
2023-05-24T11:09:43.964Z,54.60
2023-05-24T11:12:10.546Z,54.90
2023-05-24T11:14:37.080Z,54.90
2023-05-24T11:17:03.589Z,54.90
2023-05-24T11:19:30.121Z,55.00
2023-05-24T11:21:56.617Z,55.00
2023-05-24T11:24:23.165Z,55.10
2023-05-24T11:26:49.696Z,54.90
2023-05-24T11:29:16.233Z,55.00
2023-05-24T11:31:47.403Z,54.90
2023-05-24T11:34:14.082Z,55.00
2023-05-24T11:36:40.611Z,54.90
2023-05-24T11:39:07.154Z,55.10
2023-05-24T11:41:33.673Z,54.60
2023-05-24T11:44:00.226Z,54.60
2023-05-24T11:46:26.820Z,54.40
2023-05-24T11:48:53.388Z,54.90
2023-05-24T11:51:19.888Z,54.50
2023-05-24T11:53:46.392Z,54.70
2023-05-24T11:56:12.919Z,54.70
2023-05-24T11:58:39.436Z,54.50
2023-05-24T12:01:05.962Z,54.60
2023-05-24T12:03:32.724Z,54.50
2023-05-24T12:05:59.405Z,54.40
2023-05-24T12:08:25.929Z,54.50
2023-05-24T12:10:52.444Z,54.50
2023-05-24T12:13:18.991Z,54.40
2023-05-24T12:15:45.605Z,54.30
2023-05-24T12:18:12.211Z,54.30
2023-05-24T12:20:38.920Z,54.40
2023-05-24T12:23:05.543Z,54.40
2023-05-24T12:25:32.061Z,54.40
2023-05-24T12:27:58.588Z,54.50
2023-05-24T12:30:25.100Z,54.60
2023-05-24T12:32:51.653Z,54.50
2023-05-24T12:35:18.310Z,54.60
2023-05-24T12:37:44.849Z,54.60
2023-05-24T12:40:11.357Z,54.60
2023-05-24T12:42:37.884Z,54.70
2023-05-24T12:45:04.424Z,54.90
2023-05-24T12:47:30.974Z,54.90
2023-05-24T12:49:57.594Z,54.90
2023-05-24T12:52:24.779Z,54.90
2023-05-24T12:54:51.435Z,54.70
2023-05-24T12:57:17.964Z,54.80
2023-05-24T12:59:44.485Z,54.80
2023-05-24T13:02:11.022Z,54.90
2023-05-24T13:04:37.546Z,54.90
2023-05-24T13:07:04.047Z,55.00
2023-05-24T13:09:30.659Z,55.20
2023-05-24T13:11:57.198Z,55.20
2023-05-24T13:14:23.717Z,55.40
2023-05-24T13:16:50.299Z,55.30
2023-05-24T13:19:16.870Z,55.30
2023-05-24T13:21:43.382Z,55.10
2023-05-24T13:24:10.049Z,55.20
2023-05-24T13:26:36.561Z,55.10
2023-05-24T13:31:32.537Z,55.30
2023-05-24T13:33:59.096Z,55.10
2023-05-24T13:36:25.620Z,55.10
2023-05-24T13:39:02.322Z,55.10
2023-05-24T13:41:38.692Z,55.10
2023-05-24T13:44:05.230Z,55.30
2023-05-24T13:46:31.826Z,55.40
2023-05-24T13:48:58.403Z,55.40
2023-05-24T13:51:24.957Z,55.10
2023-05-24T13:53:51.494Z,55.30
2023-05-24T13:56:18.042Z,55.40
2023-05-24T13:58:44.570Z,55.30
2023-05-24T14:01:11.255Z,55.40
2023-05-24T14:03:37.866Z,55.40
2023-05-24T14:06:04.483Z,55.50
2023-05-24T14:08:31.072Z,55.10
2023-05-24T14:10:57.620Z,55.20
2023-05-24T14:14:13.815Z,55.30
2023-05-24T14:16:10.665Z,55.20
2023-05-24T14:18:37.249Z,55.30
2023-05-24T14:21:03.782Z,55.30
2023-05-24T14:23:30.312Z,55.20
2023-05-24T14:25:56.833Z,55.20
2023-05-24T14:28:23.366Z,55.40
2023-05-24T14:30:49.912Z,55.20
2023-05-24T14:33:16.438Z,55.40
2023-05-24T14:35:43.125Z,55.10
2023-05-24T14:38:09.850Z,55.50
2023-05-24T14:40:36.436Z,55.50
2023-05-24T14:43:03.008Z,55.50
2023-05-24T14:45:29.578Z,55.60
2023-05-24T14:47:56.189Z,55.60
2023-05-24T14:50:23.273Z,55.60
2023-05-24T14:52:49.832Z,55.80
2023-05-24T14:55:16.372Z,55.80
2023-05-24T14:57:42.913Z,55.90
2023-05-24T15:00:09.415Z,55.90
2023-05-24T15:02:36.024Z,55.80
2023-05-24T15:05:02.603Z,55.90
2023-05-24T15:07:29.163Z,55.90
2023-05-24T15:09:55.691Z,55.80
2023-05-24T15:12:22.228Z,55.90
2023-05-24T15:14:48.750Z,56.00
2023-05-24T15:17:15.374Z,55.90
2023-05-24T15:19:41.955Z,55.80
2023-05-24T15:22:08.471Z,55.90
2023-05-24T15:24:34.991Z,55.80
2023-05-24T15:27:01.586Z,55.80
2023-05-24T15:29:29.272Z,55.90
2023-05-24T15:31:55.797Z,55.90
2023-05-24T15:34:23.668Z,55.80
2023-05-24T15:36:50.470Z,55.80
2023-05-24T15:39:17.009Z,56.00
2023-05-24T15:41:43.526Z,55.90
2023-05-24T15:44:10.040Z,56.10
2023-05-24T15:46:36.726Z,56.10
2023-05-24T15:49:03.407Z,56.10
2023-05-24T15:51:58.112Z,56.10
2023-05-24T15:54:16.467Z,56.10
2023-05-24T15:56:42.990Z,56.20
2023-05-24T15:59:09.550Z,56.20
2023-05-24T16:01:36.134Z,56.20
2023-05-24T16:04:02.706Z,56.20
2023-05-24T16:06:29.261Z,56.30
2023-05-24T16:08:55.785Z,56.30
2023-05-24T16:11:22.311Z,56.30
2023-05-24T16:13:48.827Z,56.20
2023-05-24T16:16:15.376Z,56.30
2023-05-24T16:18:41.986Z,56.20
2023-05-24T16:21:08.515Z,56.20
2023-05-24T16:23:35.041Z,56.10
2023-05-24T16:26:01.598Z,56.30
2023-05-24T16:28:28.209Z,56.20
2023-05-24T16:30:54.756Z,56.90
2023-05-24T16:33:21.264Z,56.30
2023-05-24T16:35:47.776Z,56.30
2023-05-24T16:38:14.287Z,56.30
2023-05-24T16:40:40.921Z,56.30
2023-05-24T16:43:07.516Z,56.30
2023-05-24T16:45:34.270Z,56.30
2023-05-24T16:48:00.862Z,56.30
2023-05-24T16:50:27.453Z,56.40
2023-05-24T16:52:54.023Z,56.30
2023-05-24T16:55:20.627Z,56.30
2023-05-24T16:57:47.156Z,56.40
2023-05-24T17:00:13.672Z,56.20
2023-05-24T17:02:40.290Z,56.20
2023-05-24T17:05:06.878Z,56.20
2023-05-24T17:07:33.405Z,56.20
2023-05-24T17:09:59.946Z,56.20
2023-05-24T17:12:26.456Z,56.30
2023-05-24T17:14:52.986Z,56.20
2023-05-24T17:17:19.552Z,56.20
2023-05-24T17:19:46.124Z,56.30
2023-05-24T17:22:17.515Z,56.20
2023-05-24T17:24:44.034Z,56.40
2023-05-24T17:27:10.549Z,56.30
2023-05-24T17:29:37.100Z,56.20
2023-05-24T17:32:03.722Z,56.20
2023-05-24T17:34:30.334Z,56.20
2023-05-24T17:36:56.888Z,56.30
2023-05-24T17:39:23.422Z,56.30
2023-05-24T17:41:49.926Z,56.10
2023-05-24T17:44:16.469Z,56.20
2023-05-24T17:46:43.164Z,56.20
2023-05-24T17:49:09.787Z,56.30
2023-05-24T17:51:36.381Z,56.20
2023-05-24T17:54:02.926Z,56.20
2023-05-24T17:56:29.546Z,56.20
2023-05-24T17:58:56.064Z,56.00
2023-05-24T18:01:22.697Z,56.20
2023-05-24T18:03:49.239Z,56.20
2023-05-24T18:06:15.791Z,56.30
2023-05-24T18:08:42.297Z,56.10
2023-05-24T18:11:08.883Z,56.80
2023-05-24T18:13:35.447Z,56.00
2023-05-24T18:16:01.993Z,56.10
2023-05-24T18:18:28.507Z,56.10
2023-05-24T18:20:55.021Z,56.10
2023-05-24T18:23:22.830Z,56.00
2023-05-24T18:25:49.438Z,56.00
2023-05-24T18:28:15.946Z,56.00
2023-05-24T18:30:42.459Z,56.10
2023-05-24T18:33:09.047Z,56.00
2023-05-24T18:35:35.801Z,55.90
2023-05-24T18:38:02.345Z,55.90
2023-05-24T18:40:28.898Z,56.00
2023-05-24T18:42:55.444Z,55.90
2023-05-24T18:45:21.975Z,55.90
2023-05-24T18:47:48.551Z,56.00
2023-05-24T18:50:15.128Z,56.00
2023-05-24T18:52:41.666Z,56.00
2023-05-24T18:55:08.180Z,55.90
2023-05-24T18:57:34.731Z,56.00
2023-05-24T19:00:01.248Z,55.90
2023-05-24T19:02:27.924Z,56.00
2023-05-24T19:04:54.660Z,55.90
2023-05-24T19:07:22.293Z,56.00
2023-05-24T19:09:48.818Z,56.10
2023-05-24T19:12:15.423Z,56.00
2023-05-24T19:14:42.075Z,56.00
2023-05-24T19:17:08.614Z,56.10
2023-05-24T19:19:35.171Z,56.00
2023-05-24T19:22:01.696Z,55.90
2023-05-24T19:24:28.212Z,55.90
2023-05-24T19:26:54.739Z,55.90
2023-05-24T19:29:21.269Z,56.00
2023-05-24T19:31:47.813Z,56.10
2023-05-24T19:34:14.377Z,56.00
2023-05-24T19:36:40.900Z,56.10
2023-05-24T19:39:07.440Z,56.10
2023-05-24T19:41:33.944Z,56.10
2023-05-24T19:44:00.464Z,56.20
2023-05-24T19:46:27.040Z,56.10
2023-05-24T19:48:53.561Z,56.10
2023-05-24T19:51:20.102Z,56.20
2023-05-24T19:53:46.624Z,56.10
2023-05-24T19:56:13.149Z,56.30
2023-05-24T19:58:39.659Z,56.30
2023-05-24T20:01:06.204Z,56.20
2023-05-24T20:03:32.893Z,56.20
2023-05-24T20:05:59.505Z,56.10
2023-05-24T20:08:26.060Z,56.30
2023-05-24T20:10:52.592Z,56.10
2023-05-24T20:13:19.120Z,56.10
2023-05-24T20:15:45.717Z,56.10
2023-05-24T20:18:12.342Z,56.10
2023-05-24T20:20:39.044Z,56.10
2023-05-24T20:23:05.665Z,56.10
2023-05-24T20:25:32.197Z,56.10
2023-05-24T20:27:58.736Z,56.10
2023-05-24T20:30:25.242Z,56.10
2023-05-24T20:32:51.833Z,56.20
2023-05-24T20:35:18.403Z,56.20
2023-05-24T20:37:47.598Z,56.20
2023-05-24T20:40:14.132Z,56.30
2023-05-24T20:42:41.564Z,56.20
2023-05-24T20:45:08.088Z,56.30
2023-05-24T20:47:34.628Z,56.30
2023-05-24T20:50:01.162Z,56.30
2023-05-24T20:52:27.712Z,56.30
2023-05-24T20:54:54.255Z,56.30
2023-05-24T20:57:21.513Z,56.40
2023-05-24T20:59:53.618Z,56.40
2023-05-24T21:02:20.216Z,56.40
2023-05-24T21:04:46.754Z,56.90
2023-05-24T21:07:13.289Z,56.50
2023-05-24T21:09:39.830Z,56.40
2023-05-24T21:12:06.369Z,56.50
2023-05-24T21:14:32.970Z,56.50
2023-05-24T21:16:59.517Z,56.50
2023-05-24T21:19:26.047Z,56.50
2023-05-24T21:21:52.558Z,56.50
2023-05-24T21:24:19.105Z,56.60
2023-05-24T21:26:45.641Z,56.60
2023-05-24T21:29:12.162Z,56.60
2023-05-24T21:31:38.727Z,56.60
2023-05-24T21:34:05.256Z,56.70
2023-05-24T21:36:31.766Z,56.80
2023-05-24T21:38:58.294Z,56.70
2023-05-24T21:41:24.790Z,56.60
2023-05-24T21:43:51.331Z,56.60
2023-05-24T21:46:17.893Z,56.60
2023-05-24T21:48:44.433Z,56.60
2023-05-24T21:51:10.944Z,56.60
2023-05-24T21:53:37.453Z,56.60
2023-05-24T21:56:03.965Z,56.60
2023-05-24T21:58:30.535Z,56.70
2023-05-24T22:01:09.128Z,56.60
2023-05-24T22:03:35.715Z,56.70
2023-05-24T22:06:02.385Z,56.70
2023-05-24T22:08:28.935Z,56.60
2023-05-24T22:10:55.503Z,56.60
2023-05-24T22:13:22.027Z,56.60
2023-05-24T22:15:48.588Z,56.60
2023-05-24T22:18:15.145Z,56.70
2023-05-24T22:20:41.727Z,56.60
2023-05-24T22:23:08.264Z,56.70
2023-05-24T22:25:34.796Z,56.70
2023-05-24T22:28:01.319Z,56.60
2023-05-24T22:30:27.868Z,56.70
2023-05-24T22:32:54.448Z,56.70
2023-05-24T22:35:20.997Z,56.60
2023-05-24T22:37:47.508Z,56.60
2023-05-24T22:40:14.076Z,56.60
2023-05-24T22:42:40.614Z,56.70
2023-05-24T22:45:07.245Z,56.80
2023-05-24T22:47:33.918Z,56.60
2023-05-24T22:50:00.500Z,56.70
2023-05-24T22:52:27.033Z,56.70
2023-05-24T22:54:53.581Z,56.70
2023-05-24T22:57:20.245Z,56.80
2023-05-24T22:59:46.852Z,56.70
2023-05-24T23:02:13.478Z,56.70
2023-05-24T23:04:40.065Z,56.60
2023-05-24T23:07:06.661Z,56.60
2023-05-24T23:09:33.356Z,56.70
2023-05-24T23:11:59.928Z,56.70
2023-05-24T23:14:26.480Z,56.80
2023-05-24T23:16:53.112Z,56.60
2023-05-24T23:19:19.713Z,56.60
2023-05-24T23:21:46.409Z,56.60
2023-05-24T23:24:13.052Z,56.70
2023-05-24T23:26:41.723Z,56.60
2023-05-24T23:29:08.309Z,56.80
2023-05-24T23:31:34.932Z,56.70
2023-05-24T23:34:01.513Z,56.70
2023-05-24T23:36:28.066Z,56.70
2023-05-24T23:38:54.618Z,56.80
2023-05-24T23:41:21.161Z,56.70
2023-05-24T23:43:47.710Z,56.70
2023-05-24T23:46:14.273Z,56.60
2023-05-24T23:48:40.837Z,56.70
2023-05-24T23:51:07.411Z,56.60
2023-05-24T23:53:35.726Z,57.10
2023-05-24T23:56:02.296Z,56.50
2023-05-24T23:58:28.924Z,56.60
